sensor_id;sensor_type;location;lat;lon;timestamp;temperature;humidity
68378;DHT22;55322;48.146;11.516;2022-07-30T00:00:20;16.74;93.03
68378;DHT22;55322;48.146;11.516;2022-07-30T00:02:46;16.77;92.85
68378;DHT22;55322;48.146;11.516;2022-07-30T00:05:13;16.78;92.58
68378;DHT22;55322;48.146;11.516;2022-07-30T00:07:38;16.70;91.34
68378;DHT22;55322;48.146;11.516;2022-07-30T00:10:04;16.74;92.14
68378;DHT22;55322;48.146;11.516;2022-07-30T00:12:29;16.74;92.86
68378;DHT22;55322;48.146;11.516;2022-07-30T00:14:55;16.78;93.07
68378;DHT22;55322;48.146;11.516;2022-07-30T00:17:20;16.78;92.81
68378;DHT22;55322;48.146;11.516;2022-07-30T00:19:45;16.74;92.61
68378;DHT22;55322;48.146;11.516;2022-07-30T00:22:11;16.73;93.19
68378;DHT22;55322;48.146;11.516;2022-07-30T00:24:36;16.73;91.60
68378;DHT22;55322;48.146;11.516;2022-07-30T00:27:02;16.71;92.01
68378;DHT22;55322;48.146;11.516;2022-07-30T00:29:27;16.64;91.32
68378;DHT22;55322;48.146;11.516;2022-07-30T00:31:53;16.70;92.35
68378;DHT22;55322;48.146;11.516;2022-07-30T00:34:18;16.71;92.78
68378;DHT22;55322;48.146;11.516;2022-07-30T00:36:43;16.74;92.32
68378;DHT22;55322;48.146;11.516;2022-07-30T00:39:08;16.73;92.96
68378;DHT22;55322;48.146;11.516;2022-07-30T00:41:34;16.71;93.01
68378;DHT22;55322;48.146;11.516;2022-07-30T00:44:02;16.70;93.12
68378;DHT22;55322;48.146;11.516;2022-07-30T00:46:27;16.70;93.78
68378;DHT22;55322;48.146;11.516;2022-07-30T00:48:53;16.73;93.49
68378;DHT22;55322;48.146;11.516;2022-07-30T00:51:18;16.74;92.99
68378;DHT22;55322;48.146;11.516;2022-07-30T00:53:43;16.75;93.52
68378;DHT22;55322;48.146;11.516;2022-07-30T00:56:08;16.78;93.86
68378;DHT22;55322;48.146;11.516;2022-07-30T00:58:34;16.77;92.56
68378;DHT22;55322;48.146;11.516;2022-07-30T01:00:59;16.78;93.03
68378;DHT22;55322;48.146;11.516;2022-07-30T01:03:24;16.81;93.40
68378;DHT22;55322;48.146;11.516;2022-07-30T01:05:50;16.81;93.46
68378;DHT22;55322;48.146;11.516;2022-07-30T01:08:15;16.84;93.75
68378;DHT22;55322;48.146;11.516;2022-07-30T01:10:41;16.80;93.52
68378;DHT22;55322;48.146;11.516;2022-07-30T01:13:06;16.83;92.96
68378;DHT22;55322;48.146;11.516;2022-07-30T01:15:32;16.84;93.17
68378;DHT22;55322;48.146;11.516;2022-07-30T01:18:01;16.81;92.22
68378;DHT22;55322;48.146;11.516;2022-07-30T01:20:32;16.89;92.85
68378;DHT22;55322;48.146;11.516;2022-07-30T01:27:57;16.81;92.78
68378;DHT22;55322;48.146;11.516;2022-07-30T01:30:27;16.85;90.48
68378;DHT22;55322;48.146;11.516;2022-07-30T01:32:54;16.85;91.55
68378;DHT22;55322;48.146;11.516;2022-07-30T01:35:22;16.87;92.14
68378;DHT22;55322;48.146;11.516;2022-07-30T01:37:50;16.84;92.31
68378;DHT22;55322;48.146;11.516;2022-07-30T01:40:16;16.87;92.23
68378;DHT22;55322;48.146;11.516;2022-07-30T01:42:43;16.84;92.37
68378;DHT22;55322;48.146;11.516;2022-07-30T01:45:10;16.84;91.98
68378;DHT22;55322;48.146;11.516;2022-07-30T01:47:37;16.88;91.90
68378;DHT22;55322;48.146;11.516;2022-07-30T01:50:04;16.84;91.98
68378;DHT22;55322;48.146;11.516;2022-07-30T01:52:35;16.84;91.58
68378;DHT22;55322;48.146;11.516;2022-07-30T01:55:02;16.81;91.06
68378;DHT22;55322;48.146;11.516;2022-07-30T01:57:28;16.88;91.68
68378;DHT22;55322;48.146;11.516;2022-07-30T02:00:01;16.85;91.87
68378;DHT22;55322;48.146;11.516;2022-07-30T02:02:27;16.84;91.51
68378;DHT22;55322;48.146;11.516;2022-07-30T02:04:52;16.80;91.86
68378;DHT22;55322;48.146;11.516;2022-07-30T02:07:55;16.77;91.79
68378;DHT22;55322;48.146;11.516;2022-07-30T02:10:28;16.80;91.46
68378;DHT22;55322;48.146;11.516;2022-07-30T02:12:57;16.78;91.58
68378;DHT22;55322;48.146;11.516;2022-07-30T02:15:28;16.78;91.24
68378;DHT22;55322;48.146;11.516;2022-07-30T02:18:00;16.75;91.74
68378;DHT22;55322;48.146;11.516;2022-07-30T02:20:28;16.75;91.38
68378;DHT22;55322;48.146;11.516;2022-07-30T02:22:58;16.73;91.15
68378;DHT22;55322;48.146;11.516;2022-07-30T02:25:25;16.73;91.20
68378;DHT22;55322;48.146;11.516;2022-07-30T02:27:54;16.70;91.63
68378;DHT22;55322;48.146;11.516;2022-07-30T02:30:23;16.71;91.65
68378;DHT22;55322;48.146;11.516;2022-07-30T02:32:54;16.65;92.05
68378;DHT22;55322;48.146;11.516;2022-07-30T02:35:22;16.68;92.18
68378;DHT22;55322;48.146;11.516;2022-07-30T02:37:50;16.63;92.08
68378;DHT22;55322;48.146;11.516;2022-07-30T02:40:18;16.53;92.56
68378;DHT22;55322;48.146;11.516;2022-07-30T02:42:46;16.50;92.69
68378;DHT22;55322;48.146;11.516;2022-07-30T02:45:15;16.49;93.02
68378;DHT22;55322;48.146;11.516;2022-07-30T02:47:42;16.41;93.02
68378;DHT22;55322;48.146;11.516;2022-07-30T02:50:09;16.40;92.97
68378;DHT22;55322;48.146;11.516;2022-07-30T02:52:35;16.36;92.82
68378;DHT22;55322;48.146;11.516;2022-07-30T02:55:02;16.37;92.98
68378;DHT22;55322;48.146;11.516;2022-07-30T02:57:28;16.39;93.04
68378;DHT22;55322;48.146;11.516;2022-07-30T02:59:55;16.37;92.66
68378;DHT22;55322;48.146;11.516;2022-07-30T03:02:23;16.40;92.43
68378;DHT22;55322;48.146;11.516;2022-07-30T03:04:49;16.40;92.21
68378;DHT22;55322;48.146;11.516;2022-07-30T03:07:15;16.44;92.44
68378;DHT22;55322;48.146;11.516;2022-07-30T03:09:41;16.47;92.06
68378;DHT22;55322;48.146;11.516;2022-07-30T03:12:09;16.51;91.70
68378;DHT22;55322;48.146;11.516;2022-07-30T03:14:36;16.57;91.67
68378;DHT22;55322;48.146;11.516;2022-07-30T03:17:03;16.57;91.58
68378;DHT22;55322;48.146;11.516;2022-07-30T03:19:31;16.57;91.08
68378;DHT22;55322;48.146;11.516;2022-07-30T03:21:59;16.57;90.87
68378;DHT22;55322;48.146;11.516;2022-07-30T03:24:27;16.60;91.39
68378;DHT22;55322;48.146;11.516;2022-07-30T03:26:54;16.56;91.65
68378;DHT22;55322;48.146;11.516;2022-07-30T03:29:22;16.61;91.36
68378;DHT22;55322;48.146;11.516;2022-07-30T03:31:48;16.61;91.24
68378;DHT22;55322;48.146;11.516;2022-07-30T03:34:15;16.65;91.32
68378;DHT22;55322;48.146;11.516;2022-07-30T03:36:41;16.65;90.65
68378;DHT22;55322;48.146;11.516;2022-07-30T03:39:07;16.68;90.76
68378;DHT22;55322;48.146;11.516;2022-07-30T03:41:34;16.68;91.23
68378;DHT22;55322;48.146;11.516;2022-07-30T03:44:00;16.65;91.14
68378;DHT22;55322;48.146;11.516;2022-07-30T03:46:26;16.64;91.18
68378;DHT22;55322;48.146;11.516;2022-07-30T03:48:52;16.60;91.12
68378;DHT22;55322;48.146;11.516;2022-07-30T03:51:18;16.56;91.09
68378;DHT22;55322;48.146;11.516;2022-07-30T03:53:44;16.61;91.63
68378;DHT22;55322;48.146;11.516;2022-07-30T03:56:11;16.64;90.32
68378;DHT22;55322;48.146;11.516;2022-07-30T03:58:38;16.65;91.29
68378;DHT22;55322;48.146;11.516;2022-07-30T04:01:03;16.64;91.21
68378;DHT22;55322;48.146;11.516;2022-07-30T04:03:31;16.65;91.47
68378;DHT22;55322;48.146;11.516;2022-07-30T04:05:57;16.64;91.62
68378;DHT22;55322;48.146;11.516;2022-07-30T04:08:22;16.51;91.59
68378;DHT22;55322;48.146;11.516;2022-07-30T04:10:49;16.54;91.86
68378;DHT22;55322;48.146;11.516;2022-07-30T04:13:14;16.44;92.17
68378;DHT22;55322;48.146;11.516;2022-07-30T04:33:59;16.34;93.41
68378;DHT22;55322;48.146;11.516;2022-07-30T04:36:55;16.41;93.66
68378;DHT22;55322;48.146;11.516;2022-07-30T04:39:42;16.40;93.34
68378;DHT22;55322;48.146;11.516;2022-07-30T04:42:08;16.49;92.80
68378;DHT22;55322;48.146;11.516;2022-07-30T04:44:33;16.56;92.72
68378;DHT22;55322;48.146;11.516;2022-07-30T04:46:59;16.63;92.55
68378;DHT22;55322;48.146;11.516;2022-07-30T04:49:26;16.71;91.65
68378;DHT22;55322;48.146;11.516;2022-07-30T04:51:52;16.70;91.73
68378;DHT22;55322;48.146;11.516;2022-07-30T04:54:19;16.75;89.86
68378;DHT22;55322;48.146;11.516;2022-07-30T04:56:46;16.85;89.95
68378;DHT22;55322;48.146;11.516;2022-07-30T04:59:14;16.95;89.16
68378;DHT22;55322;48.146;11.516;2022-07-30T05:01:40;17.04;89.41
68378;DHT22;55322;48.146;11.516;2022-07-30T05:04:07;17.11;88.50
68378;DHT22;55322;48.146;11.516;2022-07-30T05:06:33;17.19;88.36
68378;DHT22;55322;48.146;11.516;2022-07-30T05:08:59;17.25;88.01
68378;DHT22;55322;48.146;11.516;2022-07-30T05:11:25;17.28;87.55
68378;DHT22;55322;48.146;11.516;2022-07-30T05:13:50;17.38;87.39
68378;DHT22;55322;48.146;11.516;2022-07-30T05:16:15;17.40;86.85
68378;DHT22;55322;48.146;11.516;2022-07-30T05:18:41;17.38;87.06
68378;DHT22;55322;48.146;11.516;2022-07-30T05:21:07;17.38;87.84
68378;DHT22;55322;48.146;11.516;2022-07-30T05:23:32;17.38;86.92
68378;DHT22;55322;48.146;11.516;2022-07-30T05:25:58;17.39;86.80
68378;DHT22;55322;48.146;11.516;2022-07-30T05:28:24;17.42;86.57
68378;DHT22;55322;48.146;11.516;2022-07-30T05:30:53;17.43;86.85
68378;DHT22;55322;48.146;11.516;2022-07-30T05:33:19;17.46;86.41
68378;DHT22;55322;48.146;11.516;2022-07-30T05:35:44;17.49;86.10
68378;DHT22;55322;48.146;11.516;2022-07-30T05:38:10;17.53;85.93
68378;DHT22;55322;48.146;11.516;2022-07-30T05:40:35;17.58;85.67
68378;DHT22;55322;48.146;11.516;2022-07-30T05:43:00;17.62;85.60
68378;DHT22;55322;48.146;11.516;2022-07-30T05:45:26;17.68;85.33
68378;DHT22;55322;48.146;11.516;2022-07-30T05:47:51;17.68;86.01
68378;DHT22;55322;48.146;11.516;2022-07-30T05:50:16;17.69;85.16
68378;DHT22;55322;48.146;11.516;2022-07-30T05:52:42;17.66;84.91
68378;DHT22;55322;48.146;11.516;2022-07-30T05:55:08;17.63;84.55
68378;DHT22;55322;48.146;11.516;2022-07-30T05:57:34;17.66;85.89
68378;DHT22;55322;48.146;11.516;2022-07-30T06:00:01;17.72;84.86
68378;DHT22;55322;48.146;11.516;2022-07-30T06:02:26;17.78;84.80
68378;DHT22;55322;48.146;11.516;2022-07-30T06:04:52;17.94;84.39
68378;DHT22;55322;48.146;11.516;2022-07-30T06:07:17;18.00;84.21
68378;DHT22;55322;48.146;11.516;2022-07-30T06:09:43;18.07;84.44
68378;DHT22;55322;48.146;11.516;2022-07-30T06:12:08;18.03;84.40
68378;DHT22;55322;48.146;11.516;2022-07-30T06:14:33;18.13;83.28
68378;DHT22;55322;48.146;11.516;2022-07-30T06:16:59;18.23;83.32
68378;DHT22;55322;48.146;11.516;2022-07-30T06:19:24;18.30;82.97
68378;DHT22;55322;48.146;11.516;2022-07-30T06:21:50;18.40;82.47
68378;DHT22;55322;48.146;11.516;2022-07-30T06:24:15;18.51;81.67
68378;DHT22;55322;48.146;11.516;2022-07-30T06:26:41;18.54;82.53
68378;DHT22;55322;48.146;11.516;2022-07-30T06:29:06;18.48;81.94
68378;DHT22;55322;48.146;11.516;2022-07-30T06:31:31;18.33;82.56
68378;DHT22;55322;48.146;11.516;2022-07-30T06:33:57;18.29;83.16
68378;DHT22;55322;48.146;11.516;2022-07-30T06:36:22;18.07;83.23
68378;DHT22;55322;48.146;11.516;2022-07-30T06:38:47;18.13;82.90
68378;DHT22;55322;48.146;11.516;2022-07-30T06:41:13;18.10;83.39
68378;DHT22;55322;48.146;11.516;2022-07-30T06:43:39;18.14;82.98
68378;DHT22;55322;48.146;11.516;2022-07-30T06:46:05;18.21;82.33
68378;DHT22;55322;48.146;11.516;2022-07-30T06:48:30;18.20;82.36
68378;DHT22;55322;48.146;11.516;2022-07-30T06:50:55;18.85;81.18
68378;DHT22;55322;48.146;11.516;2022-07-30T06:53:21;20.69;74.75
68378;DHT22;55322;48.146;11.516;2022-07-30T06:55:46;21.83;69.64
68378;DHT22;55322;48.146;11.516;2022-07-30T06:58:11;22.75;66.11
68378;DHT22;55322;48.146;11.516;2022-07-30T07:00:37;23.91;62.44
68378;DHT22;55322;48.146;11.516;2022-07-30T07:03:02;23.77;62.74
68378;DHT22;55322;48.146;11.516;2022-07-30T07:05:27;24.66;61.05
68378;DHT22;55322;48.146;11.516;2022-07-30T07:07:53;24.18;59.52
68378;DHT22;55322;48.146;11.516;2022-07-30T07:10:18;24.45;60.48
68378;DHT22;55322;48.146;11.516;2022-07-30T07:12:44;24.36;59.36
68378;DHT22;55322;48.146;11.516;2022-07-30T07:15:10;24.48;61.03
68378;DHT22;55322;48.146;11.516;2022-07-30T07:17:35;24.35;60.81
68378;DHT22;55322;48.146;11.516;2022-07-30T07:20:00;24.41;61.93
68378;DHT22;55322;48.146;11.516;2022-07-30T07:22:26;24.66;59.45
68378;DHT22;55322;48.146;11.516;2022-07-30T07:24:52;24.68;60.34
68378;DHT22;55322;48.146;11.516;2022-07-30T07:27:18;24.11;62.35
68378;DHT22;55322;48.146;11.516;2022-07-30T07:29:43;24.05;59.93
68378;DHT22;55322;48.146;11.516;2022-07-30T07:32:08;24.55;60.68
68378;DHT22;55322;48.146;11.516;2022-07-30T07:34:34;24.44;60.64
68378;DHT22;55322;48.146;11.516;2022-07-30T07:36:59;24.71;59.57
68378;DHT22;55322;48.146;11.516;2022-07-30T07:39:24;24.65;59.96
68378;DHT22;55322;48.146;11.516;2022-07-30T07:41:50;24.47;61.19
68378;DHT22;55322;48.146;11.516;2022-07-30T07:44:15;24.32;60.35
68378;DHT22;55322;48.146;11.516;2022-07-30T07:46:40;24.64;60.01
68378;DHT22;55322;48.146;11.516;2022-07-30T07:49:06;24.97;59.90
68378;DHT22;55322;48.146;11.516;2022-07-30T07:51:31;25.12;58.38
68378;DHT22;55322;48.146;11.516;2022-07-30T07:53:56;25.37;56.83
68378;DHT22;55322;48.146;11.516;2022-07-30T07:56:21;25.59;57.03
68378;DHT22;55322;48.146;11.516;2022-07-30T07:58:47;25.82;56.56
68378;DHT22;55322;48.146;11.516;2022-07-30T08:01:12;25.78;55.61
68378;DHT22;55322;48.146;11.516;2022-07-30T08:03:38;26.05;55.20
68378;DHT22;55322;48.146;11.516;2022-07-30T08:06:03;25.57;54.99
68378;DHT22;55322;48.146;11.516;2022-07-30T08:08:29;25.67;57.14
68378;DHT22;55322;48.146;11.516;2022-07-30T08:10:54;25.92;56.06
68378;DHT22;55322;48.146;11.516;2022-07-30T08:13:20;25.74;56.26
68378;DHT22;55322;48.146;11.516;2022-07-30T08:15:45;26.01;55.08
68378;DHT22;55322;48.146;11.516;2022-07-30T08:18:10;25.40;55.30
68378;DHT22;55322;48.146;11.516;2022-07-30T08:20:37;25.23;54.98
68378;DHT22;55322;48.146;11.516;2022-07-30T08:23:04;24.87;55.19
68378;DHT22;55322;48.146;11.516;2022-07-30T08:25:29;25.87;56.35
68378;DHT22;55322;48.146;11.516;2022-07-30T08:27:55;25.61;55.98
68378;DHT22;55322;48.146;11.516;2022-07-30T08:30:20;25.90;57.01
68378;DHT22;55322;48.146;11.516;2022-07-30T08:32:46;26.38;52.51
68378;DHT22;55322;48.146;11.516;2022-07-30T08:35:11;26.73;53.52
68378;DHT22;55322;48.146;11.516;2022-07-30T08:37:37;26.39;53.61
68378;DHT22;55322;48.146;11.516;2022-07-30T08:40:05;26.46;54.65
68378;DHT22;55322;48.146;11.516;2022-07-30T08:42:33;26.85;54.16
68378;DHT22;55322;48.146;11.516;2022-07-30T08:44:59;27.31;51.45
68378;DHT22;55322;48.146;11.516;2022-07-30T08:47:30;27.94;47.64
68378;DHT22;55322;48.146;11.516;2022-07-30T08:49:57;28.21;47.80
68378;DHT22;55322;48.146;11.516;2022-07-30T08:52:26;27.31;48.59
68378;DHT22;55322;48.146;11.516;2022-07-30T08:54:52;27.72;48.89
68378;DHT22;55322;48.146;11.516;2022-07-30T08:57:17;28.28;46.49
68378;DHT22;55322;48.146;11.516;2022-07-30T08:59:43;28.25;47.29
68378;DHT22;55322;48.146;11.516;2022-07-30T09:02:08;28.19;47.22
68378;DHT22;55322;48.146;11.516;2022-07-30T09:04:34;27.94;48.73
68378;DHT22;55322;48.146;11.516;2022-07-30T09:07:00;28.02;49.12
68378;DHT22;55322;48.146;11.516;2022-07-30T09:09:25;28.06;46.77
68378;DHT22;55322;48.146;11.516;2022-07-30T09:11:50;28.52;46.41
68378;DHT22;55322;48.146;11.516;2022-07-30T09:14:16;28.99;44.84
68378;DHT22;55322;48.146;11.516;2022-07-30T09:16:42;28.55;47.59
68378;DHT22;55322;48.146;11.516;2022-07-30T09:19:19;29.34;45.54
68378;DHT22;55322;48.146;11.516;2022-07-30T09:21:59;28.11;47.25
68378;DHT22;55322;48.146;11.516;2022-07-30T09:24:25;28.15;47.06
68378;DHT22;55322;48.146;11.516;2022-07-30T09:26:59;28.83;45.37
68378;DHT22;55322;48.146;11.516;2022-07-30T09:29:29;28.46;45.30
68378;DHT22;55322;48.146;11.516;2022-07-30T09:32:00;28.36;47.83
68378;DHT22;55322;48.146;11.516;2022-07-30T09:36:52;29.51;43.64
68378;DHT22;55322;48.146;11.516;2022-07-30T09:39:40;29.26;42.54
68378;DHT22;55322;48.146;11.516;2022-07-30T09:42:22;28.93;45.47
68378;DHT22;55322;48.146;11.516;2022-07-30T09:44:50;29.14;42.82
68378;DHT22;55322;48.146;11.516;2022-07-30T09:47:48;29.47;42.27
68378;DHT22;55322;48.146;11.516;2022-07-30T09:50:15;29.57;42.03
68378;DHT22;55322;48.146;11.516;2022-07-30T09:52:43;27.72;45.59
68378;DHT22;55322;48.146;11.516;2022-07-30T09:55:09;28.05;46.52
68378;DHT22;55322;48.146;11.516;2022-07-30T09:57:53;27.37;43.10
68378;DHT22;55322;48.146;11.516;2022-07-30T10:00:21;28.19;45.82
68378;DHT22;55322;48.146;11.516;2022-07-30T10:02:47;28.39;44.15
68378;DHT22;55322;48.146;11.516;2022-07-30T10:05:15;27.47;46.54
68378;DHT22;55322;48.146;11.516;2022-07-30T10:07:54;27.60;44.28
68378;DHT22;55322;48.146;11.516;2022-07-30T10:10:25;28.46;43.85
68378;DHT22;55322;48.146;11.516;2022-07-30T10:12:56;28.49;40.76
68378;DHT22;55322;48.146;11.516;2022-07-30T10:15:23;29.31;42.12
68378;DHT22;55322;48.146;11.516;2022-07-30T10:17:49;27.87;42.29
68378;DHT22;55322;48.146;11.516;2022-07-30T10:20:15;28.29;42.28
68378;DHT22;55322;48.146;11.516;2022-07-30T10:22:41;27.53;40.50
68378;DHT22;55322;48.146;11.516;2022-07-30T10:25:07;27.33;43.84
68378;DHT22;55322;48.146;11.516;2022-07-30T10:27:33;26.97;44.67
68378;DHT22;55322;48.146;11.516;2022-07-30T10:29:59;27.30;45.94
68378;DHT22;55322;48.146;11.516;2022-07-30T10:32:26;26.59;46.48
68378;DHT22;55322;48.146;11.516;2022-07-30T10:34:51;27.67;42.79
68378;DHT22;55322;48.146;11.516;2022-07-30T10:37:18;28.21;43.27
68378;DHT22;55322;48.146;11.516;2022-07-30T10:39:51;27.03;42.78
68378;DHT22;55322;48.146;11.516;2022-07-30T10:42:31;26.59;43.75
68378;DHT22;55322;48.146;11.516;2022-07-30T10:47:57;27.57;43.64
68378;DHT22;55322;48.146;11.516;2022-07-30T10:50:23;28.70;40.58
68378;DHT22;55322;48.146;11.516;2022-07-30T10:52:58;28.65;37.84
68378;DHT22;55322;48.146;11.516;2022-07-30T10:55:27;27.60;41.27
68378;DHT22;55322;48.146;11.516;2022-07-30T11:00:29;28.31;40.95
68378;DHT22;55322;48.146;11.516;2022-07-30T11:05:41;28.14;40.64
68378;DHT22;55322;48.146;11.516;2022-07-30T11:10:54;26.93;43.77
68378;DHT22;55322;48.146;11.516;2022-07-30T11:13:58;26.28;43.64
68378;DHT22;55322;48.146;11.516;2022-07-30T11:19:14;27.70;43.01
68378;DHT22;55322;48.146;11.516;2022-07-30T11:22:25;27.85;42.79
68378;DHT22;55322;48.146;11.516;2022-07-30T11:24:52;27.76;42.78
68378;DHT22;55322;48.146;11.516;2022-07-30T11:29:59;28.35;40.51
68378;DHT22;55322;48.146;11.516;2022-07-30T11:32:27;28.01;39.81
68378;DHT22;55322;48.146;11.516;2022-07-30T11:38:09;27.70;40.82
68378;DHT22;55322;48.146;11.516;2022-07-30T11:40:40;26.83;42.15
68378;DHT22;55322;48.146;11.516;2022-07-30T11:43:23;26.38;43.65
68378;DHT22;55322;48.146;11.516;2022-07-30T11:48:32;26.38;43.95
68378;DHT22;55322;48.146;11.516;2022-07-30T11:50:58;25.87;43.76
68378;DHT22;55322;48.146;11.516;2022-07-30T11:53:23;25.15;45.31
68378;DHT22;55322;48.146;11.516;2022-07-30T11:55:54;24.82;48.42
68378;DHT22;55322;48.146;11.516;2022-07-30T11:58:36;25.12;48.67
68378;DHT22;55322;48.146;11.516;2022-07-30T12:03:30;26.45;45.04
68378;DHT22;55322;48.146;11.516;2022-07-30T12:06:02;26.46;45.76
68378;DHT22;55322;48.146;11.516;2022-07-30T12:08:28;25.56;45.80
68378;DHT22;55322;48.146;11.516;2022-07-30T12:10:58;25.85;44.26
68378;DHT22;55322;48.146;11.516;2022-07-30T12:13:24;26.34;43.24
68378;DHT22;55322;48.146;11.516;2022-07-30T12:15:50;26.48;40.52
68378;DHT22;55322;48.146;11.516;2022-07-30T12:18:27;26.95;40.50
68378;DHT22;55322;48.146;11.516;2022-07-30T12:20:57;27.26;40.76
68378;DHT22;55322;48.146;11.516;2022-07-30T12:23:24;27.43;39.79
68378;DHT22;55322;48.146;11.516;2022-07-30T12:25:49;26.32;39.86
68378;DHT22;55322;48.146;11.516;2022-07-30T12:28:23;25.67;40.13
68378;DHT22;55322;48.146;11.516;2022-07-30T12:30:51;26.39;42.31
68378;DHT22;55322;48.146;11.516;2022-07-30T12:33:17;27.13;41.93
68378;DHT22;55322;48.146;11.516;2022-07-30T12:35:51;27.34;37.57
68378;DHT22;55322;48.146;11.516;2022-07-30T12:38:18;27.51;38.96
68378;DHT22;55322;48.146;11.516;2022-07-30T12:41:00;27.65;39.21
68378;DHT22;55322;48.146;11.516;2022-07-30T12:43:48;27.23;40.37
68378;DHT22;55322;48.146;11.516;2022-07-30T12:46:23;26.63;41.70
68378;DHT22;55322;48.146;11.516;2022-07-30T12:48:54;26.79;44.12
68378;DHT22;55322;48.146;11.516;2022-07-30T12:51:21;27.17;39.77
68378;DHT22;55322;48.146;11.516;2022-07-30T12:53:48;27.16;40.35
68378;DHT22;55322;48.146;11.516;2022-07-30T12:56:27;26.90;37.34
68378;DHT22;55322;48.146;11.516;2022-07-30T12:58:55;26.69;38.50
68378;DHT22;55322;48.146;11.516;2022-07-30T13:01:43;26.28;38.97
68378;DHT22;55322;48.146;11.516;2022-07-30T13:04:10;26.12;41.61
68378;DHT22;55322;48.146;11.516;2022-07-30T13:06:36;25.98;40.33
68378;DHT22;55322;48.146;11.516;2022-07-30T13:09:03;25.88;42.20
68378;DHT22;55322;48.146;11.516;2022-07-30T13:11:43;26.00;39.86
68378;DHT22;55322;48.146;11.516;2022-07-30T13:14:09;26.05;38.92
68378;DHT22;55322;48.146;11.516;2022-07-30T13:16:38;25.82;38.99
68378;DHT22;55322;48.146;11.516;2022-07-30T13:19:07;26.14;38.58
68378;DHT22;55322;48.146;11.516;2022-07-30T13:21:33;26.52;41.32
68378;DHT22;55322;48.146;11.516;2022-07-30T13:23:59;26.72;39.09
68378;DHT22;55322;48.146;11.516;2022-07-30T13:26:25;27.07;42.43
68378;DHT22;55322;48.146;11.516;2022-07-30T13:28:50;27.02;36.31
68378;DHT22;55322;48.146;11.516;2022-07-30T13:31:15;27.11;39.90
68378;DHT22;55322;48.146;11.516;2022-07-30T13:33:42;26.45;38.05
68378;DHT22;55322;48.146;11.516;2022-07-30T13:36:08;26.17;42.89
68378;DHT22;55322;48.146;11.516;2022-07-30T13:38:33;26.71;39.13
68378;DHT22;55322;48.146;11.516;2022-07-30T13:40:59;26.32;37.76
68378;DHT22;55322;48.146;11.516;2022-07-30T13:43:24;25.71;39.38
68378;DHT22;55322;48.146;11.516;2022-07-30T13:45:50;25.40;39.36
68378;DHT22;55322;48.146;11.516;2022-07-30T13:48:16;26.05;40.44
68378;DHT22;55322;48.146;11.516;2022-07-30T13:50:41;26.32;39.63
68378;DHT22;55322;48.146;11.516;2022-07-30T13:53:08;26.65;39.33
68378;DHT22;55322;48.146;11.516;2022-07-30T13:55:35;26.45;39.11
68378;DHT22;55322;48.146;11.516;2022-07-30T13:58:01;26.51;38.06
68378;DHT22;55322;48.146;11.516;2022-07-30T14:00:27;26.89;38.16
68378;DHT22;55322;48.146;11.516;2022-07-30T14:03:02;26.97;38.44
68378;DHT22;55322;48.146;11.516;2022-07-30T14:05:27;26.72;37.69
68378;DHT22;55322;48.146;11.516;2022-07-30T14:07:53;26.48;38.95
68378;DHT22;55322;48.146;11.516;2022-07-30T14:10:18;26.62;38.54
68378;DHT22;55322;48.146;11.516;2022-07-30T14:12:48;26.87;36.47
68378;DHT22;55322;48.146;11.516;2022-07-30T14:15:13;26.66;37.19
68378;DHT22;55322;48.146;11.516;2022-07-30T14:17:38;26.93;38.83
68378;DHT22;55322;48.146;11.516;2022-07-30T14:20:04;26.82;38.20
68378;DHT22;55322;48.146;11.516;2022-07-30T14:22:29;27.13;39.93
68378;DHT22;55322;48.146;11.516;2022-07-30T14:24:55;27.29;39.07
68378;DHT22;55322;48.146;11.516;2022-07-30T14:27:20;26.78;38.82
68378;DHT22;55322;48.146;11.516;2022-07-30T14:29:45;26.48;38.51
68378;DHT22;55322;48.146;11.516;2022-07-30T14:32:11;26.52;37.54
68378;DHT22;55322;48.146;11.516;2022-07-30T14:34:36;26.48;39.78
68378;DHT22;55322;48.146;11.516;2022-07-30T14:37:02;26.69;38.32
68378;DHT22;55322;48.146;11.516;2022-07-30T14:39:27;26.21;38.17
68378;DHT22;55322;48.146;11.516;2022-07-30T14:41:53;26.17;38.60
68378;DHT22;55322;48.146;11.516;2022-07-30T14:44:18;25.75;40.76
68378;DHT22;55322;48.146;11.516;2022-07-30T14:46:43;25.77;38.24
68378;DHT22;55322;48.146;11.516;2022-07-30T14:49:11;25.67;38.61
68378;DHT22;55322;48.146;11.516;2022-07-30T14:51:36;25.61;39.31
68378;DHT22;55322;48.146;11.516;2022-07-30T14:54:02;25.81;39.20
68378;DHT22;55322;48.146;11.516;2022-07-30T14:56:27;25.77;41.77
68378;DHT22;55322;48.146;11.516;2022-07-30T14:58:53;25.78;38.58
68378;DHT22;55322;48.146;11.516;2022-07-30T15:01:19;25.46;40.36
68378;DHT22;55322;48.146;11.516;2022-07-30T15:03:44;25.90;41.31
68378;DHT22;55322;48.146;11.516;2022-07-30T15:06:10;26.05;40.10
68378;DHT22;55322;48.146;11.516;2022-07-30T15:08:37;25.98;41.58
68378;DHT22;55322;48.146;11.516;2022-07-30T15:11:03;26.17;39.16
68378;DHT22;55322;48.146;11.516;2022-07-30T15:13:28;25.61;39.15
68378;DHT22;55322;48.146;11.516;2022-07-30T15:15:53;25.17;40.47
68378;DHT22;55322;48.146;11.516;2022-07-30T15:18:18;25.49;40.79
68378;DHT22;55322;48.146;11.516;2022-07-30T15:20:44;25.74;39.59
68378;DHT22;55322;48.146;11.516;2022-07-30T15:23:09;25.77;39.07
68378;DHT22;55322;48.146;11.516;2022-07-30T15:25:35;25.63;39.64
68378;DHT22;55322;48.146;11.516;2022-07-30T15:28:00;25.67;39.40
68378;DHT22;55322;48.146;11.516;2022-07-30T15:30:25;25.33;40.17
68378;DHT22;55322;48.146;11.516;2022-07-30T15:32:51;25.37;40.97
68378;DHT22;55322;48.146;11.516;2022-07-30T15:35:18;25.54;41.42
68378;DHT22;55322;48.146;11.516;2022-07-30T15:37:43;25.41;39.98
68378;DHT22;55322;48.146;11.516;2022-07-30T15:40:09;25.47;42.34
68378;DHT22;55322;48.146;11.516;2022-07-30T15:42:34;25.57;40.98
68378;DHT22;55322;48.146;11.516;2022-07-30T15:45:03;25.49;41.31
68378;DHT22;55322;48.146;11.516;2022-07-30T15:47:29;25.59;38.84
68378;DHT22;55322;48.146;11.516;2022-07-30T15:49:54;25.53;39.01
68378;DHT22;55322;48.146;11.516;2022-07-30T15:52:22;25.36;41.35
68378;DHT22;55322;48.146;11.516;2022-07-30T15:54:48;25.43;40.81
68378;DHT22;55322;48.146;11.516;2022-07-30T15:57:13;25.44;40.09
68378;DHT22;55322;48.146;11.516;2022-07-30T15:59:39;25.41;40.69
68378;DHT22;55322;48.146;11.516;2022-07-30T16:02:04;25.60;41.70
68378;DHT22;55322;48.146;11.516;2022-07-30T16:04:29;25.64;40.92
68378;DHT22;55322;48.146;11.516;2022-07-30T16:06:57;25.64;40.70